Safi, Morocco

2:04 AM WEST on July 31, 2016 (GMT +0100)
Mogador | | Change Station

Elev 26 ft 31.52 °N, 9.78 °W | Updated 4 minutes ago

Clear
Clear
88 °F
Feels Like 86 °F
N
8
Wind Variable Wind from East
Gusts mph

Today
High -- | Low -- °F
--% Chance of Precip.
Yesterday
High -- | Low -- °F
Precip. -- in
Pressure 29.92 in
Visibility 6.2 miles
Clouds
Heat Index 86 °F
Dew Point 55 °F
Humidity 33%
Rainfall 0.00 in
Snow Depth Not available.
6:51 AM 8:34 PM
Waning Crescent, 10% visible
METAR GMMI 310100Z AUTO 08007KT 9999NDV ////// 31/13 Q1013 NOSIG
Pressure 29.92 in
Visibility 6.2 miles
Clouds
Heat Index 86 °F
Dew Point 55 °F
Humidity 33%
Rainfall 0.00 in
Snow Depth Not available.
6:51 AM 8:34 PM
Waning Crescent, 10% visible
METAR GMMI 310100Z AUTO 08007KT 9999NDV ////// 31/13 Q1013 NOSIG

10-Day Weather Forecast

No radar image for this location.
×

Almanac

Astronomy

Jul. 31, 2016 Rise Set
Actual Time
Civil Twilight
Nautical Twilight
Astronomical Twilight
Moon
Length of Visible Light
Length of Day
Tomorrow will be .
, % of the Moon is Illuminated

Today's Extremes

Country Highs Country Lows

Community

WunderPhotos

Upload Photos

1,928,692 photos uploaded!

WunderBlog® & News

Nearby

Air Quality

  Air Quality AQ Index Pollutant
Not available.

Snow Depth

Station Depth Elevation

Earthquake Activity

City Distance Mag. Time & Date
Minimum magnitude displayed is 2.5.

Coastal Water Temperatures

Place Temperature

Stations

Nearby Weather Stations

Station Location Temp. Windchill Dew Point Humidity Wind Precip. Elev Updated Type